This is the latest recevied weather packets stored in our database for station/object JQ2GLP-13. If no packets are shown the sender has not sent any weather packets the latest 10 day(s).
| Time | Temp. | Humidity | Pressure | Rain* | Wind** | Luminosity | Snow |
|---|---|---|---|---|---|---|---|
| 1778071033 | 17.22° C | 80% | 1013.2 hPa | 0 mm | - | - | - |
| 1778062033 | 18.33° C | 76% | 1013.1 hPa | 0 mm | - | - | - |
| 1778049435 | 20° C | 63% | 1013.9 hPa | 0 mm | - | - | - |
| 1778045834 | 20.56° C | 63% | 1014.3 hPa | 0 mm | - | - | - |
| 1778042235 | 19.44° C | 63% | 1014.6 hPa | 0 mm | - | - | - |
| 1778038635 | 19.44° C | 62% | 1015.4 hPa | 0 mm | - | - | - |
| 1778036835 | 20° C | 61% | 1015.5 hPa | 0 mm | - | - | - |
| 1778033235 | 19.44° C | 61% | 1016.2 hPa | 0 mm | - | - | - |
| 1778031431 | 19.44° C | 61% | 1016.5 hPa | 0 mm | - | - | - |
| 1778029631 | 19.44° C | 61% | 1016.7 hPa | 0 mm | - | - | - |
| 1778024231 | 18.33° C | 59% | 1016.9 hPa | 0 mm | - | - | - |
| 1778022430 | 17.22° C | 62% | 1017.4 hPa | 0 mm | - | - | - |
| 1778020632 | 17.22° C | 60% | 1017.4 hPa | 0 mm | - | - | - |
| 1778018831 | 16.67° C | 60% | 1016.9 hPa | 0 mm | - | - | - |
| 1778015231 | 16.11° C | 58% | 1016.7 hPa | 0 mm | - | - | - |
| 1778013431 | 16.11° C | 58% | 1017.1 hPa | 0 mm | - | - | - |
| 1778011633 | 16.11° C | 57% | 1016.9 hPa | 0 mm | - | - | - |
| 1778009832 | 15.56° C | 57% | 1017 hPa | 0 mm | - | - | - |
| 1778000833 | 15.56° C | 58% | 1016.8 hPa | 0 mm | - | - | - |
| 1777999032 | 15° C | 58% | 1017.1 hPa | 0 mm | - | - | - |
| 1777993633 | 14.44° C | 58% | 1017.7 hPa | 0 mm | - | - | - |
| 1777991833 | 14.44° C | 57% | 1017.9 hPa | 0 mm | - | - | - |
| 1777990032 | 14.44° C | 57% | 1017.9 hPa | 0 mm | - | - | - |
| 1777986433 | 14.44° C | 56% | 1018.1 hPa | 0 mm | - | - | - |
| 1777982832 | 14.44° C | 53% | 1017.9 hPa | 0 mm | - | - | - |
* Rain latest hour (hover to see other rain measurements)
** Current wind speed in m/s (hover to see current wind gust speed)